Time;durP1;ratioP1;P1;durP2;ratioP2;P2;SDS_P1;SDS_P2;PMS_P1;PMS_P2;Temp;Humidity;BMP_temperature;BMP_pressure;BME280_temperature;BME280_humidity;BME280_pressure;Samples;Min_cycle;Max_cycle;Signal;HPM_P1;HPM_P2
2023/04/28 00:01:25;;;;;;;4.13;3.60;;;11.80;73.50;;;;;;4993417;28;20044;-62
2023/04/28 00:03:52;;;;;;;3.92;3.50;;;11.80;73.50;;;;;;4990838;28;20620;-62
2023/04/28 00:06:17;;;;;;;5.03;3.60;;;11.90;73.70;;;;;;4993954;28;20278;-63
2023/04/28 00:08:43;;;;;;;3.70;3.33;;;11.90;73.60;;;;;;4994274;28;20486;-63
2023/04/28 00:11:09;;;;;;;5.55;3.83;;;11.90;73.60;;;;;;4994179;28;20168;-62
2023/04/28 00:13:35;;;;;;;3.78;3.47;;;12.00;73.70;;;;;;4994347;28;20279;-62
2023/04/28 00:16:01;;;;;;;5.30;3.92;;;12.00;73.70;;;;;;4992153;28;20037;-63
2023/04/28 00:18:27;;;;;;;4.47;3.70;;;12.00;73.70;;;;;;4994629;28;20038;-63
2023/04/28 00:20:54;;;;;;;4.50;3.65;;;12.00;73.70;;;;;;4995337;28;20054;-62
2023/04/28 00:23:20;;;;;;;5.10;4.32;;;12.10;73.90;;;;;;4993893;28;20280;-62
2023/04/28 00:25:51;;;;;;;6.78;4.55;;;12.10;73.90;;;;;;4991352;28;20096;-62
2023/04/28 00:28:16;;;;;;;6.13;4.18;;;12.10;74.10;;;;;;4993144;28;20054;-63
2023/04/28 00:30:42;;;;;;;5.05;4.00;;;12.00;73.70;;;;;;4991130;28;20621;-62
2023/04/28 00:33:07;;;;;;;6.15;4.60;;;12.00;73.70;;;;;;4991690;28;20046;-62
2023/04/28 00:35:33;;;;;;;5.25;4.72;;;12.00;74.00;;;;;;4990623;28;20045;-63
2023/04/28 00:37:58;;;;;;;5.43;4.40;;;12.00;74.50;;;;;;4992695;28;20069;-62
2023/04/28 00:40:35;;;;;;;5.55;4.35;;;12.00;74.60;;;;;;4992611;28;20042;-62
2023/04/28 00:43:01;;;;;;;5.75;3.97;;;12.00;75.10;;;;;;4990714;28;20061;-63
2023/04/28 00:45:27;;;;;;;5.30;4.43;;;12.00;74.70;;;;;;4996341;28;20037;-63
2023/04/28 00:47:54;;;;;;;6.88;4.18;;;12.00;74.90;;;;;;4996698;28;20533;-62
2023/04/28 00:50:21;;;;;;;6.07;4.28;;;12.00;75.30;;;;;;4996737;28;20482;-61
2023/04/28 00:52:46;;;;;;;4.30;3.90;;;12.10;75.40;;;;;;4996108;28;20461;-62
2023/04/28 00:55:14;;;;;;;5.93;4.75;;;12.10;75.40;;;;;;4993932;28;20041;-61
2023/04/28 00:57:41;;;;;;;4.28;3.88;;;12.10;75.60;;;;;;4992609;28;20030;-62
2023/04/28 01:00:07;;;;;;;4.60;3.97;;;12.10;75.50;;;;;;4996733;28;20080;-61
2023/04/28 01:02:37;;;;;;;4.78;4.20;;;12.10;75.40;;;;;;4999931;28;20386;-62
2023/04/28 01:05:03;;;;;;;6.22;4.38;;;12.10;75.40;;;;;;4991518;28;20386;-62
2023/04/28 01:07:30;;;;;;;4.63;4.10;;;12.10;75.30;;;;;;4992386;28;20038;-62
2023/04/28 01:09:56;;;;;;;5.85;4.20;;;12.20;75.60;;;;;;4993872;28;20053;-62
2023/04/28 01:12:22;;;;;;;4.85;4.25;;;12.20;75.70;;;;;;4994630;28;20038;-62
2023/04/28 01:14:50;;;;;;;4.90;4.32;;;12.20;76.90;;;;;;4990970;28;22188;-62
2023/04/28 01:17:16;;;;;;;4.70;4.30;;;12.30;76.30;;;;;;4991592;28;20042;-62
2023/04/28 01:19:42;;;;;;;6.18;4.30;;;12.30;76.00;;;;;;4992565;28;20279;-62
2023/04/28 01:22:12;;;;;;;4.88;4.32;;;12.20;76.00;;;;;;4990780;28;20096;-63
2023/04/28 01:24:38;;;;;;;7.50;4.50;;;12.20;76.00;;;;;;4993067;28;20085;-62
2023/04/28 01:27:04;;;;;;;4.30;3.83;;;12.20;76.00;;;;;;4993598;28;20042;-63
2023/04/28 01:29:29;;;;;;;4.80;4.22;;;12.30;76.00;;;;;;4991288;28;20045;-62
2023/04/28 01:31:55;;;;;;;5.85;4.30;;;12.20;75.70;;;;;;4992842;28;20237;-62
2023/04/28 01:34:20;;;;;;;4.38;3.97;;;12.30;75.90;;;;;;4989113;28;20149;-62
2023/04/28 01:36:46;;;;;;;5.65;4.65;;;12.30;76.10;;;;;;4991197;28;20291;-62
2023/04/28 01:39:12;;;;;;;6.68;4.25;;;12.30;76.20;;;;;;4995353;28;20161;-62
2023/04/28 01:41:38;;;;;;;5.38;4.18;;;12.30;76.30;;;;;;4994594;28;20042;-62
2023/04/28 01:44:05;;;;;;;5.95;4.50;;;12.30;76.40;;;;;;4995337;28;20034;-63
2023/04/28 01:46:30;;;;;;;5.78;4.78;;;12.30;76.40;;;;;;4995588;28;20030;-62
2023/04/28 01:48:56;;;;;;;7.15;4.85;;;12.20;76.30;;;;;;4993008;28;20034;-64
2023/04/28 01:51:21;;;;;;;5.53;4.95;;;12.20;76.20;;;;;;4998363;28;20026;-62
2023/04/28 01:53:47;;;;;;;5.10;4.60;;;12.20;76.30;;;;;;4995368;28;20056;-62
2023/04/28 01:58:56;;;;;;;5.00;4.05;;;12.20;76.40;;;;;;5004846;28;20044;-63
2023/04/28 02:01:22;;;;;;;5.15;4.60;;;12.20;76.10;;;;;;5019983;28;20038;-62
2023/04/28 02:03:49;;;;;;;5.00;4.32;;;12.30;76.10;;;;;;5016845;28;20038;-63
2023/04/28 02:06:14;;;;;;;6.00;4.40;;;12.20;76.00;;;;;;5019234;28;20030;-63
2023/04/28 02:08:40;;;;;;;5.07;4.57;;;12.20;76.10;;;;;;5016929;28;20025;-63
2023/04/28 02:11:05;;;;;;;5.95;4.93;;;12.20;76.40;;;;;;5017860;28;20026;-62
2023/04/28 02:13:31;;;;;;;7.45;5.13;;;12.20;76.50;;;;;;5017700;28;20030;-62
2023/04/28 02:16:00;;;;;;;7.70;5.00;;;12.20;76.50;;;;;;5012665;28;20079;-62
2023/04/28 02:18:26;;;;;;;6.35;4.82;;;12.30;76.90;;;;;;5015109;28;20480;-62
2023/04/28 02:20:51;;;;;;;6.35;4.85;;;12.30;76.70;;;;;;5014356;28;20048;-62
2023/04/28 02:23:17;;;;;;;8.00;4.90;;;12.30;76.70;;;;;;5016694;28;20171;-63
2023/04/28 02:25:42;;;;;;;5.28;4.60;;;12.30;76.70;;;;;;5015706;28;20091;-62
2023/04/28 02:28:08;;;;;;;9.93;5.38;;;12.30;76.60;;;;;;5016015;28;20698;-63
2023/04/28 02:30:33;;;;;;;7.85;5.47;;;12.30;76.70;;;;;;5012129;28;20410;-62
2023/04/28 02:32:59;;;;;;;6.03;5.07;;;12.30;76.70;;;;;;5014293;28;20064;-63
2023/04/28 02:35:25;;;;;;;7.20;5.38;;;12.30;76.60;;;;;;5013252;28;20061;-63
2023/04/28 02:37:51;;;;;;;5.80;5.20;;;12.30;76.60;;;;;;5013491;28;20048;-62
2023/04/28 02:40:16;;;;;;;7.55;5.50;;;12.30;76.60;;;;;;5014843;28;20560;-63
2023/04/28 02:42:42;;;;;;;7.80;5.03;;;12.30;76.50;;;;;;5015139;28;20139;-62
2023/04/28 02:45:08;;;;;;;7.18;5.38;;;12.30;76.30;;;;;;5014171;28;20112;-63
2023/04/28 02:47:33;;;;;;;6.68;5.35;;;12.30;76.30;;;;;;5013567;28;20045;-62
2023/04/28 02:49:59;;;;;;;5.85;5.25;;;12.20;76.10;;;;;;5013380;28;20735;-62
2023/04/28 02:52:25;;;;;;;6.18;5.57;;;12.20;76.30;;;;;;5018633;28;20058;-63
2023/04/28 02:54:53;;;;;;;7.57;5.25;;;12.10;76.50;;;;;;5014425;28;20065;-63
2023/04/28 02:57:19;;;;;;;5.30;4.80;;;12.10;76.60;;;;;;5017737;28;20026;-62
2023/04/28 02:59:45;;;;;;;7.45;5.20;;;12.00;76.80;;;;;;5014203;28;20064;-62
2023/04/28 03:02:11;;;;;;;6.70;4.80;;;12.00;77.00;;;;;;5015240;28;20072;-61
2023/04/28 03:04:37;;;;;;;7.32;4.85;;;11.90;77.10;;;;;;5012943;28;20550;-62
2023/04/28 03:07:02;;;;;;;6.57;5.18;;;11.90;77.30;;;;;;5014812;28;20053;-62
2023/04/28 03:09:28;;;;;;;6.82;5.28;;;11.90;77.50;;;;;;5014954;28;21937;-62
2023/04/28 03:11:53;;;;;;;5.72;5.13;;;11.90;77.60;;;;;;5015738;28;20037;-62
2023/04/28 03:14:19;;;;;;;8.43;4.82;;;12.00;77.50;;;;;;5014184;28;20052;-62
2023/04/28 03:16:45;;;;;;;4.95;4.45;;;12.00;77.50;;;;;;5014829;28;20405;-62
2023/04/28 03:19:10;;;;;;;6.45;4.95;;;12.00;77.60;;;;;;5011785;28;20463;-62
2023/04/28 03:21:36;;;;;;;7.72;4.95;;;12.10;77.50;;;;;;5012711;28;20030;-62
2023/04/28 03:24:01;;;;;;;6.85;4.95;;;12.10;77.40;;;;;;5014164;28;20036;-62
2023/04/28 03:26:27;;;;;;;5.88;5.28;;;12.20;77.20;;;;;;5013347;28;20099;-63
2023/04/28 03:28:53;;;;;;;6.20;4.68;;;12.20;77.20;;;;;;5013849;28;20408;-63
2023/04/28 03:31:19;;;;;;;7.43;5.47;;;12.20;77.10;;;;;;5012816;28;20030;-63
2023/04/28 03:33:45;;;;;;;5.90;4.97;;;12.20;77.20;;;;;;5011024;28;20127;-62
2023/04/28 03:36:11;;;;;;;8.68;5.47;;;12.20;77.20;;;;;;5013807;28;20068;-63
2023/04/28 03:38:37;;;;;;;7.00;5.00;;;12.20;77.20;;;;;;5012775;28;20128;-63
2023/04/28 03:41:03;;;;;;;5.70;4.95;;;12.20;77.40;;;;;;5014328;28;20230;-63
2023/04/28 03:43:28;;;;;;;4.95;4.55;;;12.20;77.60;;;;;;5013389;28;20389;-63
2023/04/28 03:45:54;;;;;;;5.20;4.70;;;12.10;77.80;;;;;;5012624;28;20029;-62
2023/04/28 03:48:19;;;;;;;4.88;4.35;;;12.10;78.00;;;;;;5016556;28;20156;-63
2023/04/28 03:50:45;;;;;;;4.60;4.20;;;12.10;78.20;;;;;;5013545;28;20155;-62
2023/04/28 03:53:11;;;;;;;5.18;4.68;;;12.10;78.60;;;;;;5014114;28;20030;-62
2023/04/28 03:55:36;;;;;;;4.82;4.32;;;12.10;78.50;;;;;;5012551;28;20727;-63
2023/04/28 03:58:03;;;;;;;5.78;4.35;;;12.10;78.60;;;;;;5017315;28;20060;-62
2023/04/28 04:00:28;;;;;;;7.35;4.78;;;12.10;78.70;;;;;;5016633;28;20125;-62
2023/04/28 04:02:54;;;;;;;6.10;4.70;;;12.10;78.70;;;;;;5018486;28;20207;-62
2023/04/28 04:05:20;;;;;;;6.18;5.15;;;12.10;78.70;;;;;;5015034;28;20044;-62
2023/04/28 04:07:45;;;;;;;5.28;4.78;;;12.10;78.90;;;;;;5013336;28;20042;-62
2023/04/28 04:10:11;;;;;;;6.65;4.90;;;12.10;79.00;;;;;;5014057;28;20321;-62
2023/04/28 04:12:36;;;;;;;5.85;5.13;;;12.20;79.10;;;;;;5010929;28;20033;-62
2023/04/28 04:15:02;;;;;;;7.18;5.45;;;12.20;79.10;;;;;;5016378;28;20155;-62
2023/04/28 04:17:28;;;;;;;6.32;5.72;;;12.20;79.30;;;;;;5014803;28;20041;-63
2023/04/28 04:19:53;;;;;;;9.02;5.53;;;12.20;79.40;;;;;;5012856;28;20485;-62
2023/04/28 04:22:19;;;;;;;9.43;8.20;;;12.20;79.30;;;;;;5010561;28;21708;-63
2023/04/28 04:24:45;;;;;;;8.23;7.32;;;12.20;80.10;;;;;;5012038;28;20090;-63
2023/04/28 04:27:10;;;;;;;7.03;5.97;;;12.20;79.30;;;;;;5014536;28;20620;-63
2023/04/28 04:29:36;;;;;;;7.57;6.80;;;12.20;79.30;;;;;;5012933;28;20512;-63
2023/04/28 04:32:01;;;;;;;8.90;7.65;;;12.30;79.30;;;;;;5007522;28;20037;-63
2023/04/28 04:34:27;;;;;;;7.43;6.65;;;12.30;79.40;;;;;;5002980;28;20586;-63
2023/04/28 04:36:53;;;;;;;9.25;6.47;;;12.30;79.60;;;;;;5009429;28;20512;-62
2023/04/28 04:39:18;;;;;;;7.10;5.72;;;12.30;80.00;;;;;;5012409;28;20117;-63
2023/04/28 04:41:44;;;;;;;8.23;5.80;;;12.30;80.10;;;;;;5012510;28;20026;-62
2023/04/28 04:44:09;;;;;;;6.43;5.03;;;12.30;80.10;;;;;;5012947;28;20046;-62
2023/04/28 04:46:35;;;;;;;4.57;4.18;;;12.30;80.20;;;;;;5012471;28;20037;-63
2023/04/28 04:49:00;;;;;;;4.28;3.80;;;12.30;80.40;;;;;;5015810;28;20339;-61
2023/04/28 04:51:26;;;;;;;5.57;3.67;;;12.30;80.60;;;;;;5014643;28;20125;-63
2023/04/28 04:53:52;;;;;;;7.85;5.50;;;12.40;80.80;;;;;;5015061;28;20500;-63
2023/04/28 04:56:18;;;;;;;4.97;4.13;;;12.40;81.10;;;;;;5014633;28;20044;-63
2023/04/28 04:58:43;;;;;;;4.45;3.60;;;12.40;81.30;;;;;;5013457;28;20490;-63
2023/04/28 05:01:09;;;;;;;4.55;3.50;;;12.40;81.60;;;;;;5013409;28;20034;-63
2023/04/28 05:03:35;;;;;;;3.90;3.50;;;12.40;81.70;;;;;;5009558;28;20038;-64
2023/04/28 05:06:01;;;;;;;4.88;3.90;;;12.40;82.00;;;;;;5013042;28;20088;-64
2023/04/28 05:08:27;;;;;;;4.55;3.42;;;12.40;82.20;;;;;;5012541;28;20036;-64
2023/04/28 05:10:53;;;;;;;3.65;3.35;;;12.50;82.40;;;;;;5015703;28;20033;-64
2023/04/28 05:13:18;;;;;;;5.20;3.40;;;12.50;82.50;;;;;;5015986;28;20502;-64
2023/04/28 05:15:44;;;;;;;5.63;3.47;;;12.50;82.70;;;;;;5017582;28;20113;-64
2023/04/28 05:18:10;;;;;;;4.30;3.30;;;12.50;82.70;;;;;;5017343;28;20034;-64
2023/04/28 05:20:36;;;;;;;4.93;3.92;;;12.50;82.90;;;;;;5017048;28;20053;-64
2023/04/28 05:23:02;;;;;;;6.30;3.40;;;12.50;83.30;;;;;;5016188;28;20042;-64
2023/04/28 05:25:28;;;;;;;4.80;3.65;;;12.50;83.30;;;;;;5016957;28;20372;-64
2023/04/28 05:27:54;;;;;;;5.22;3.42;;;12.50;83.50;;;;;;5014730;28;20068;-64
2023/04/28 05:30:20;;;;;;;5.95;3.47;;;12.50;83.70;;;;;;5014566;28;20117;-64
2023/04/28 05:32:45;;;;;;;5.28;3.65;;;12.50;83.90;;;;;;5016202;28;20129;-64
2023/04/28 05:35:11;;;;;;;5.47;3.47;;;12.50;84.00;;;;;;5017859;28;20034;-63
2023/04/28 05:37:37;;;;;;;3.58;3.13;;;12.50;84.00;;;;;;5017930;28;20602;-64
2023/04/28 05:40:02;;;;;;;5.15;3.47;;;12.50;84.30;;;;;;5017747;28;20041;-64
2023/04/28 05:42:28;;;;;;;4.55;3.40;;;12.50;84.30;;;;;;5013239;28;20068;-63
2023/04/28 05:44:54;;;;;;;5.50;3.55;;;12.50;84.70;;;;;;5018626;28;20053;-64
2023/04/28 05:47:20;;;;;;;5.07;3.28;;;12.50;84.60;;;;;;5015753;28;20041;-63
2023/04/28 05:49:45;;;;;;;5.05;3.30;;;12.50;84.90;;;;;;5017312;28;20041;-64
2023/04/28 05:52:11;;;;;;;4.82;3.58;;;12.50;84.80;;;;;;5016812;28;20029;-63
2023/04/28 05:54:37;;;;;;;4.85;3.35;;;12.50;85.10;;;;;;5017556;28;20045;-64
2023/04/28 05:57:02;;;;;;;4.50;3.08;;;12.50;85.30;;;;;;5018068;28;20038;-63
2023/04/28 05:59:29;;;;;;;4.38;3.15;;;12.60;85.60;;;;;;5020020;28;20562;-63
2023/04/28 06:01:55;;;;;;;4.30;3.28;;;12.60;85.90;;;;;;5017481;28;20046;-63
2023/04/28 06:04:20;;;;;;;3.35;2.95;;;12.60;85.90;;;;;;5016287;28;20042;-63
2023/04/28 06:06:46;;;;;;;4.75;3.13;;;12.70;85.90;;;;;;5017395;28;20049;-63
2023/04/28 06:09:11;;;;;;;5.93;2.90;;;12.70;85.90;;;;;;5016951;28;20683;-63
2023/04/28 06:11:37;;;;;;;4.45;2.88;;;12.70;85.90;;;;;;5016262;28;20048;-63
2023/04/28 06:14:03;;;;;;;4.03;2.60;;;12.80;86.00;;;;;;5017496;28;20044;-64
2023/04/28 06:16:28;;;;;;;2.60;2.40;;;12.80;85.90;;;;;;5016321;28;20173;-64
2023/04/28 06:18:54;;;;;;;2.88;2.38;;;12.80;86.30;;;;;;5018862;28;20030;-63
2023/04/28 06:21:20;;;;;;;2.22;2.03;;;12.80;86.20;;;;;;5017020;28;20061;-64
2023/04/28 06:23:45;;;;;;;1.92;1.80;;;12.80;86.20;;;;;;5015107;28;20382;-64
2023/04/28 06:26:11;;;;;;;2.17;1.83;;;12.80;86.60;;;;;;5016613;28;20048;-63
2023/04/28 06:28:37;;;;;;;2.08;1.67;;;12.90;86.80;;;;;;5015388;28;20037;-63
2023/04/28 06:31:02;;;;;;;1.80;1.58;;;12.90;86.80;;;;;;5015181;28;20154;-63
2023/04/28 06:33:28;;;;;;;2.15;1.50;;;12.90;87.00;;;;;;5012388;28;20473;-64
2023/04/28 06:35:54;;;;;;;1.90;1.80;;;12.90;87.10;;;;;;5015667;28;20041;-64
2023/04/28 06:38:19;;;;;;;1.90;1.60;;;12.90;87.30;;;;;;5016615;28;20081;-64
2023/04/28 06:40:45;;;;;;;1.10;1.00;;;12.90;87.10;;;;;;5013957;28;20511;-64
2023/04/28 06:43:11;;;;;;;1.50;1.40;;;13.00;87.30;;;;;;5016896;28;20058;-63
2023/04/28 06:45:37;;;;;;;1.48;1.30;;;13.00;87.30;;;;;;5016407;28;20132;-63
2023/04/28 06:48:04;;;;;;;1.58;1.40;;;13.00;87.20;;;;;;5017898;28;20072;-63
2023/04/28 06:50:29;;;;;;;2.65;1.60;;;13.00;87.30;;;;;;5015595;28;20064;-64
2023/04/28 06:52:55;;;;;;;1.92;1.55;;;13.10;87.40;;;;;;5018038;28;20149;-63
2023/04/28 06:55:21;;;;;;;4.07;1.60;;;13.10;87.40;;;;;;5017455;28;20427;-63
2023/04/28 06:57:46;;;;;;;1.55;1.45;;;13.10;87.30;;;;;;5015904;28;20052;-64
2023/04/28 07:00:12;;;;;;;1.50;1.40;;;13.10;87.60;;;;;;5017205;28;20285;-63
2023/04/28 07:02:38;;;;;;;2.33;1.50;;;13.20;87.40;;;;;;5011828;28;20700;-63
2023/04/28 07:05:04;;;;;;;1.70;1.60;;;13.10;87.10;;;;;;5014824;28;20079;-63
2023/04/28 07:07:30;;;;;;;2.03;1.40;;;13.10;86.80;;;;;;5016398;28;20421;-63
2023/04/28 07:09:55;;;;;;;2.60;1.48;;;13.10;86.70;;;;;;5016876;28;20525;-63
2023/04/28 07:12:21;;;;;;;1.73;1.40;;;13.10;86.70;;;;;;5016644;28;20072;-64
2023/04/28 07:14:47;;;;;;;1.73;1.50;;;13.10;86.60;;;;;;5014947;28;21603;-63
2023/04/28 07:17:13;;;;;;;2.30;1.50;;;13.10;86.70;;;;;;5014261;28;21815;-63
2023/04/28 07:19:38;;;;;;;2.05;1.45;;;13.10;87.10;;;;;;5014133;28;20443;-63
2023/04/28 07:22:04;;;;;;;2.05;1.65;;;13.10;87.10;;;;;;5009827;28;20037;-63
2023/04/28 07:24:30;;;;;;;1.60;1.50;;;13.10;87.30;;;;;;5014492;28;20038;-65
2023/04/28 07:26:56;;;;;;;1.95;1.75;;;13.10;87.30;;;;;;5016323;28;20069;-64
2023/04/28 07:29:22;;;;;;;2.30;1.60;;;13.00;87.30;;;;;;5017783;28;20485;-63
2023/04/28 07:31:48;;;;;;;2.55;1.50;;;13.00;87.30;;;;;;5014562;28;20044;-63
2023/04/28 07:34:13;;;;;;;2.10;1.70;;;13.10;88.00;;;;;;5016139;28;20034;-64
2023/04/28 07:36:39;;;;;;;1.88;1.77;;;13.00;87.40;;;;;;5015050;28;20420;-64
2023/04/28 07:39:05;;;;;;;1.77;1.38;;;13.00;87.60;;;;;;5014561;28;20034;-63
2023/04/28 07:41:38;;;;;;;1.75;1.50;;;13.00;87.80;;;;;;5030815;28;20581;-63
2023/04/28 07:44:05;;;;;;;2.15;1.95;;;13.10;88.10;;;;;;5012059;28;20635;-64
2023/04/28 07:46:31;;;;;;;1.80;1.70;;;13.10;87.80;;;;;;5013872;28;20037;-64
2023/04/28 07:48:56;;;;;;;3.13;1.88;;;13.10;87.70;;;;;;5013807;28;20041;-63
2023/04/28 07:51:22;;;;;;;2.80;1.98;;;13.10;88.00;;;;;;5016046;28;20080;-63
2023/04/28 07:53:47;;;;;;;2.20;2.00;;;13.10;88.10;;;;;;5015236;28;20107;-64
2023/04/28 07:56:13;;;;;;;1.80;1.70;;;13.20;88.00;;;;;;5014272;28;20049;-64
2023/04/28 07:58:39;;;;;;;1.60;1.50;;;13.20;88.00;;;;;;5016483;28;20638;-64
2023/04/28 08:01:04;;;;;;;1.52;1.42;;;13.30;88.10;;;;;;5016227;28;20063;-63
2023/04/28 08:03:30;;;;;;;2.08;1.77;;;13.30;88.10;;;;;;5012268;28;20511;-64
2023/04/28 08:05:55;;;;;;;2.65;1.90;;;13.30;89.20;;;;;;5017085;28;20046;-64
2023/04/28 08:08:21;;;;;;;2.00;1.80;;;13.30;88.50;;;;;;5017119;28;20036;-64
2023/04/28 08:10:46;;;;;;;3.22;1.90;;;13.40;88.30;;;;;;5016237;28;20044;-63
2023/04/28 08:13:12;;;;;;;2.13;1.85;;;13.30;88.50;;;;;;5013940;28;20494;-63
2023/04/28 08:15:38;;;;;;;1.73;1.63;;;13.40;88.70;;;;;;5015403;28;20650;-63
2023/04/28 08:18:03;;;;;;;3.70;1.80;;;13.40;88.60;;;;;;5019612;28;20084;-63
2023/04/28 08:20:31;;;;;;;1.98;1.50;;;13.50;88.80;;;;;;5018491;28;20116;-63
2023/04/28 08:22:56;;;;;;;1.60;1.50;;;13.50;88.60;;;;;;5015430;28;20072;-63
2023/04/28 08:25:22;;;;;;;1.73;1.63;;;13.50;88.50;;;;;;5012875;28;20128;-63
2023/04/28 08:27:48;;;;;;;2.38;1.58;;;13.60;88.60;;;;;;5014267;28;20045;-63
2023/04/28 08:30:13;;;;;;;2.03;1.80;;;13.60;89.20;;;;;;5014419;28;20050;-64
2023/04/28 08:32:39;;;;;;;1.70;1.60;;;13.60;88.40;;;;;;5014517;28;20049;-63
2023/04/28 08:35:05;;;;;;;2.28;1.52;;;13.70;88.50;;;;;;5011810;28;20050;-63
2023/04/28 08:37:31;;;;;;;1.92;1.48;;;13.70;88.40;;;;;;5013782;28;20036;-63
2023/04/28 08:40:01;;;;;;;1.92;1.60;;;13.70;88.20;;;;;;5015500;28;20042;-64
2023/04/28 08:42:30;;;;;;;1.75;1.65;;;13.80;88.30;;;;;;5017407;28;20041;-64
2023/04/28 08:44:58;;;;;;;2.05;1.70;;;13.80;88.80;;;;;;5011870;28;20033;-64
2023/04/28 08:47:37;;;;;;;1.50;1.38;;;13.80;88.80;;;;;;5015796;28;20041;-63
2023/04/28 08:50:04;;;;;;;2.22;2.08;;;13.90;89.40;;;;;;5015397;28;20062;-64
2023/04/28 08:52:30;;;;;;;2.40;2.20;;;13.90;89.20;;;;;;5013372;28;20034;-63
2023/04/28 08:54:58;;;;;;;2.25;1.83;;;13.90;88.90;;;;;;5012679;28;21413;-63
2023/04/28 08:57:27;;;;;;;1.83;1.50;;;14.00;89.00;;;;;;5015542;28;20051;-64
2023/04/28 08:59:52;;;;;;;1.48;1.38;;;14.00;89.00;;;;;;5015490;28;20067;-64
2023/04/28 09:02:19;;;;;;;1.65;1.55;;;14.00;88.70;;;;;;5015625;28;20045;-67
2023/04/28 09:04:46;;;;;;;1.45;1.35;;;14.10;88.60;;;;;;5011788;28;20037;-64
2023/04/28 09:07:12;;;;;;;1.48;1.33;;;14.10;89.00;;;;;;5013368;28;20060;-64
2023/04/28 09:09:39;;;;;;;2.67;1.40;;;14.10;88.80;;;;;;5014677;28;20057;-64
2023/04/28 09:12:06;;;;;;;1.73;1.27;;;14.10;88.80;;;;;;5014300;28;20489;-64
2023/04/28 09:14:34;;;;;;;4.57;1.27;;;14.20;88.60;;;;;;5014866;28;20065;-64
2023/04/28 09:17:01;;;;;;;3.03;1.20;;;14.20;88.80;;;;;;5013480;28;20508;-64
2023/04/28 09:19:35;;;;;;;2.50;1.50;;;14.20;88.60;;;;;;5015494;28;20129;-64
2023/04/28 09:22:01;;;;;;;2.22;1.13;;;14.20;89.60;;;;;;5015644;28;20036;-64
2023/04/28 09:24:32;;;;;;;1.15;1.10;;;14.30;89.20;;;;;;5012405;28;20496;-64
2023/04/28 09:27:01;;;;;;;1.13;1.05;;;14.30;90.20;;;;;;5015614;28;20042;-64
2023/04/28 09:29:27;;;;;;;1.02;0.93;;;14.30;89.30;;;;;;5014974;28;20481;-64
2023/04/28 09:31:53;;;;;;;0.90;0.90;;;14.40;89.30;;;;;;5014575;28;20124;-64
2023/04/28 09:34:19;;;;;;;1.27;0.80;;;14.40;89.40;;;;;;5015100;28;20179;-65
2023/04/28 09:36:45;;;;;;;0.82;0.82;;;14.40;89.60;;;;;;5011359;28;20590;-64
2023/04/28 09:39:11;;;;;;;0.70;0.70;;;14.50;89.70;;;;;;5014752;28;20590;-64
2023/04/28 09:41:40;;;;;;;0.98;0.80;;;14.50;89.90;;;;;;5014077;28;20030;-64
2023/04/28 09:44:18;;;;;;;2.15;0.82;;;14.50;89.70;;;;;;5015160;28;20036;-64
2023/04/28 09:46:45;;;;;;;1.05;0.80;;;14.60;90.00;;;;;;5014297;28;20029;-64
2023/04/28 09:49:12;;;;;;;0.98;0.98;;;14.60;89.40;;;;;;5015596;28;20037;-64
2023/04/28 09:51:38;;;;;;;0.70;0.70;;;14.60;89.50;;;;;;5012107;28;20490;-64
2023/04/28 09:54:04;;;;;;;1.80;0.85;;;14.70;89.70;;;;;;5014472;28;20038;-64
2023/04/28 09:56:32;;;;;;;0.88;0.73;;;14.70;89.80;;;;;;5014776;28;20034;-64
2023/04/28 09:58:59;;;;;;;0.68;0.68;;;14.70;89.70;;;;;;5012586;28;20117;-64
2023/04/28 10:01:27;;;;;;;0.60;0.60;;;14.80;89.80;;;;;;5019192;28;20369;-64
2023/04/28 10:03:55;;;;;;;1.25;0.60;;;14.80;89.70;;;;;;5017702;28;20060;-64
2023/04/28 10:06:21;;;;;;;0.63;0.63;;;14.90;89.50;;;;;;5017762;28;20030;-65
2023/04/28 10:08:49;;;;;;;0.73;0.60;;;14.80;90.10;;;;;;5019101;28;20036;-65
2023/04/28 10:11:16;;;;;;;1.58;0.90;;;14.90;89.70;;;;;;5019057;28;20099;-64
2023/04/28 10:13:42;;;;;;;1.10;1.00;;;14.90;89.30;;;;;;5017440;28;20029;-64
2023/04/28 10:16:09;;;;;;;1.05;0.80;;;15.00;89.40;;;;;;5018769;28;20501;-64
2023/04/28 10:18:36;;;;;;;1.02;0.70;;;14.90;89.50;;;;;;5017604;28;20421;-63
2023/04/28 10:21:03;;;;;;;1.90;0.80;;;15.00;90.20;;;;;;5017958;28;20253;-64
2023/04/28 10:23:54;;;;;;;0.77;0.77;;;15.00;89.70;;;;;;5017002;28;20075;-64
2023/04/28 10:26:20;;;;;;;0.95;0.80;;;15.00;90.20;;;;;;5013600;28;20041;-64
2023/04/28 10:28:47;;;;;;;1.00;1.00;;;15.10;89.50;;;;;;5011977;28;20036;-63
2023/04/28 10:31:21;;;;;;;1.40;1.08;;;15.10;89.70;;;;;;5013117;28;20045;-64
2023/04/28 10:33:47;;;;;;;1.10;0.88;;;15.20;90.20;;;;;;5017081;28;20041;-65
2023/04/28 10:36:54;;;;;;;1.25;1.00;;;15.20;90.00;;;;;;5018068;28;20075;-63
2023/04/28 10:39:20;;;;;;;1.05;0.90;;;15.30;90.50;;;;;;4997078;28;20616;-64
2023/04/28 10:41:47;;;;;;;0.90;0.90;;;15.40;90.00;;;;;;4996371;28;20034;-64
2023/04/28 10:44:43;;;;;;;1.02;1.02;;;15.50;90.00;;;;;;4997198;28;20037;-63
2023/04/28 10:47:09;;;;;;;1.13;1.00;;;15.50;90.40;;;;;;4997085;28;20042;-63
2023/04/28 10:49:54;;;;;;;1.30;1.20;;;15.70;90.00;;;;;;4995756;28;20038;-64
2023/04/28 10:52:31;;;;;;;1.17;1.10;;;15.80;90.20;;;;;;4997300;28;20053;-63
2023/04/28 10:55:40;;;;;;;1.75;0.85;;;15.80;90.00;;;;;;4995445;28;20441;-63
2023/04/28 10:58:15;;;;;;;1.50;1.00;;;15.90;90.00;;;;;;4996845;28;20038;-63
2023/04/28 11:00:41;;;;;;;0.90;0.90;;;16.00;89.90;;;;;;4997191;28;20509;-63
2023/04/28 11:03:07;;;;;;;0.88;0.88;;;16.10;89.70;;;;;;4994573;28;20053;-63
2023/04/28 11:05:34;;;;;;;2.13;1.20;;;16.20;89.50;;;;;;4997658;28;20034;-62
2023/04/28 11:08:24;;;;;;;1.27;1.05;;;16.30;89.20;;;;;;4995793;28;20057;-63
2023/04/28 11:11:14;;;;;;;1.10;1.00;;;16.40;89.60;;;;;;4994468;28;20053;-64
2023/04/28 11:13:40;;;;;;;2.25;1.30;;;16.40;89.20;;;;;;4995327;28;20068;-63
2023/04/28 11:16:06;;;;;;;1.30;1.20;;;16.50;87.80;;;;;;4995792;28;20089;-63
2023/04/28 11:18:53;;;;;;;1.10;1.00;;;16.50;87.40;;;;;;4997251;28;20038;-63
2023/04/28 11:21:20;;;;;;;1.20;1.00;;;16.50;87.30;;;;;;4994988;28;20474;-62
2023/04/28 11:23:46;;;;;;;1.20;1.10;;;16.60;87.30;;;;;;4996848;28;20038;-63
2023/04/28 11:26:12;;;;;;;1.42;1.00;;;16.60;87.40;;;;;;4995526;28;20067;-63
2023/04/28 11:28:56;;;;;;;0.98;0.98;;;16.60;86.70;;;;;;4994487;28;20702;-63
2023/04/28 11:31:23;;;;;;;1.20;1.10;;;16.70;86.50;;;;;;4996926;28;20041;-64
2023/04/28 11:33:55;;;;;;;1.00;1.00;;;16.70;85.90;;;;;;4995832;28;20042;-63
2023/04/28 11:36:23;;;;;;;1.45;0.85;;;16.70;85.70;;;;;;4995760;28;20048;-63
2023/04/28 11:38:49;;;;;;;1.20;1.10;;;16.60;85.60;;;;;;4996837;28;20053;-63
2023/04/28 11:41:14;;;;;;;0.93;0.93;;;16.70;85.70;;;;;;4990354;28;20263;-63
2023/04/28 11:43:40;;;;;;;1.23;0.82;;;16.60;85.50;;;;;;4992209;28;20030;-63
2023/04/28 11:46:06;;;;;;;1.25;0.90;;;16.60;85.80;;;;;;4993107;28;20584;-64
2023/04/28 11:48:32;;;;;;;1.10;1.00;;;16.60;86.20;;;;;;4994954;28;20041;-63
2023/04/28 11:50:57;;;;;;;0.70;0.70;;;16.60;86.50;;;;;;4995730;28;20498;-63
2023/04/28 11:53:42;;;;;;;1.65;0.68;;;16.60;86.50;;;;;;4995669;28;20074;-63
2023/04/28 11:56:09;;;;;;;0.70;0.70;;;16.70;87.20;;;;;;4994828;28;20041;-63
2023/04/28 11:58:34;;;;;;;1.20;1.10;;;16.80;86.70;;;;;;4995845;28;20121;-63
2023/04/28 12:01:08;;;;;;;0.98;0.98;;;16.80;86.40;;;;;;4996218;28;20532;-63
2023/04/28 12:03:47;;;;;;;0.73;0.60;;;16.80;86.20;;;;;;4995833;28;20080;-63
2023/04/28 12:06:21;;;;;;;0.50;0.50;;;16.90;86.20;;;;;;4995130;28;20038;-63
2023/04/28 12:08:47;;;;;;;;;;;17.00;86.00;;;;;;4995298;28;20052;-63
2023/04/28 12:11:13;;;;;;;0.65;0.50;;;17.00;86.00;;;;;;5001171;28;19918;-63
2023/04/28 12:13:40;;;;;;;3.15;0.90;;;17.10;85.40;;;;;;4996282;28;20077;-63
2023/04/28 12:16:07;;;;;;;0.82;0.82;;;17.10;85.30;;;;;;4995376;28;20074;-63
2023/04/28 12:18:35;;;;;;;1.25;1.02;;;17.10;85.10;;;;;;4995106;28;20065;-63
2023/04/28 12:21:00;;;;;;;1.23;0.90;;;17.10;84.90;;;;;;4995685;28;20034;-63
2023/04/28 12:23:34;;;;;;;1.10;0.90;;;17.10;84.90;;;;;;4994457;28;20030;-63
2023/04/28 12:26:01;;;;;;;1.95;0.70;;;17.10;85.00;;;;;;4991605;28;20046;-63
2023/04/28 12:28:37;;;;;;;0.80;0.80;;;17.10;85.00;;;;;;4995411;28;20540;-63
2023/04/28 12:31:05;;;;;;;0.50;0.50;;;17.10;84.80;;;;;;4993764;28;20038;-63
2023/04/28 12:33:32;;;;;;;0.73;0.70;;;17.10;84.60;;;;;;4989413;28;20092;-64
2023/04/28 12:35:58;;;;;;;0.57;0.57;;;17.00;84.50;;;;;;4993328;28;20526;-64
2023/04/28 12:38:25;;;;;;;0.70;0.70;;;17.00;84.60;;;;;;4994194;28;20521;-63
2023/04/28 12:40:51;;;;;;;0.88;0.85;;;17.00;84.90;;;;;;4995453;28;20042;-63
2023/04/28 12:43:18;;;;;;;0.80;0.80;;;17.00;84.90;;;;;;4994974;28;20140;-63
2023/04/28 12:45:43;;;;;;;2.15;0.70;;;17.00;85.10;;;;;;4991619;28;20042;-63
2023/04/28 12:48:09;;;;;;;1.65;0.70;;;17.10;85.30;;;;;;4984246;28;20049;-63
2023/04/28 12:50:35;;;;;;;0.70;0.70;;;17.10;85.20;;;;;;4993673;28;20073;-63